sensor_id;sensor_type;location;lat;lon;timestamp;pressure;altitude;pressure_sealevel;temperature;humidity
40612;BME280;26317;44.894;20.286;2023-10-31T00:01:48;100163.00;;;17.18;55.47
40612;BME280;26317;44.894;20.286;2023-10-31T00:04:29;100160.75;;;17.20;55.58
40612;BME280;26317;44.894;20.286;2023-10-31T00:07:12;100153.44;;;17.21;55.27
40612;BME280;26317;44.894;20.286;2023-10-31T00:10:01;100163.16;;;17.22;55.01
40612;BME280;26317;44.894;20.286;2023-10-31T00:12:38;100152.97;;;17.19;55.53
40612;BME280;26317;44.894;20.286;2023-10-31T00:15:16;100150.56;;;17.17;55.54
40612;BME280;26317;44.894;20.286;2023-10-31T00:17:48;100149.16;;;17.20;55.53
40612;BME280;26317;44.894;20.286;2023-10-31T00:20:28;100142.28;;;17.22;56.04
40612;BME280;26317;44.894;20.286;2023-10-31T00:23:06;100117.94;;;17.05;55.71
40612;BME280;26317;44.894;20.286;2023-10-31T00:25:54;100146.25;;;17.16;55.90
40612;BME280;26317;44.894;20.286;2023-10-31T00:28:46;100135.75;;;17.15;55.89
40612;BME280;26317;44.894;20.286;2023-10-31T00:31:23;100136.06;;;17.13;56.01
40612;BME280;26317;44.894;20.286;2023-10-31T00:34:01;100146.13;;;17.13;56.40
40612;BME280;26317;44.894;20.286;2023-10-31T00:36:41;100141.03;;;17.11;55.91
40612;BME280;26317;44.894;20.286;2023-10-31T00:39:19;100122.84;;;17.12;56.08
40612;BME280;26317;44.894;20.286;2023-10-31T00:42:08;100129.25;;;17.07;56.21
40612;BME280;26317;44.894;20.286;2023-10-31T00:44:45;100125.41;;;17.08;55.91
40612;BME280;26317;44.894;20.286;2023-10-31T00:47:23;100135.44;;;17.08;56.71
40612;BME280;26317;44.894;20.286;2023-10-31T00:50:02;100124.94;;;17.06;57.28
40612;BME280;26317;44.894;20.286;2023-10-31T00:52:46;100123.53;;;17.00;58.06
40612;BME280;26317;44.894;20.286;2023-10-31T00:55:26;100119.25;;;16.99;57.83
40612;BME280;26317;44.894;20.286;2023-10-31T00:58:03;100111.28;;;16.94;56.96
40612;BME280;26317;44.894;20.286;2023-10-31T01:00:39;100116.03;;;16.97;57.15
40612;BME280;26317;44.894;20.286;2023-10-31T01:03:11;100111.28;;;16.94;56.87
40612;BME280;26317;44.894;20.286;2023-10-31T01:05:48;100107.44;;;16.95;56.40
40612;BME280;26317;44.894;20.286;2023-10-31T01:08:24;100103.31;;;16.89;56.72
40612;BME280;26317;44.894;20.286;2023-10-31T01:11:01;100100.44;;;16.94;56.44
40612;BME280;26317;44.894;20.286;2023-10-31T01:13:55;100103.16;;;16.94;55.89
40612;BME280;26317;44.894;20.286;2023-10-31T01:16:33;100097.72;;;16.94;55.11
40612;BME280;26317;44.894;20.286;2023-10-31T01:19:20;100093.44;;;16.93;54.28
40612;BME280;26317;44.894;20.286;2023-10-31T01:22:08;100091.97;;;16.95;52.63
40612;BME280;26317;44.894;20.286;2023-10-31T01:24:49;100092.31;;;16.94;52.16
40612;BME280;26317;44.894;20.286;2023-10-31T01:27:29;100083.38;;;16.93;51.66
40612;BME280;26317;44.894;20.286;2023-10-31T01:30:23;100087.50;;;16.99;50.87
40612;BME280;26317;44.894;20.286;2023-10-31T01:33:07;100085.41;;;17.05;50.88
40612;BME280;26317;44.894;20.286;2023-10-31T01:35:47;100081.72;;;17.10;50.02
40612;BME280;26317;44.894;20.286;2023-10-31T01:38:24;100080.44;;;17.16;49.81
40612;BME280;26317;44.894;20.286;2023-10-31T01:40:59;100078.31;;;17.21;49.70
40612;BME280;26317;44.894;20.286;2023-10-31T01:43:41;100062.06;;;17.21;49.60
40612;BME280;26317;44.894;20.286;2023-10-31T01:46:28;100046.59;;;17.22;49.34
40612;BME280;26317;44.894;20.286;2023-10-31T01:49:12;100053.91;;;17.30;49.26
40612;BME280;26317;44.894;20.286;2023-10-31T01:51:59;100052.59;;;17.36;48.80
40612;BME280;26317;44.894;20.286;2023-10-31T01:54:43;100047.97;;;17.36;48.91
40612;BME280;26317;44.894;20.286;2023-10-31T01:57:21;100048.69;;;17.45;48.37
40612;BME280;26317;44.894;20.286;2023-10-31T02:00:01;100046.59;;;17.51;48.66
40612;BME280;26317;44.894;20.286;2023-10-31T02:02:52;100028.41;;;17.52;48.63
40612;BME280;26317;44.894;20.286;2023-10-31T02:05:31;100026.16;;;17.54;48.58
40612;BME280;26317;44.894;20.286;2023-10-31T02:08:06;100016.91;;;17.55;48.58
40612;BME280;26317;44.894;20.286;2023-10-31T02:10:42;100016.75;;;17.60;48.18
40612;BME280;26317;44.894;20.286;2023-10-31T02:13:27;100006.34;;;17.62;48.24
40612;BME280;26317;44.894;20.286;2023-10-31T02:16:04;100007.94;;;17.63;48.04
40612;BME280;26317;44.894;20.286;2023-10-31T02:18:44;100004.25;;;17.67;48.16
40612;BME280;26317;44.894;20.286;2023-10-31T02:21:27;100008.75;;;17.63;47.39
40612;BME280;26317;44.894;20.286;2023-10-31T02:24:07;99997.09;;;17.63;47.69
40612;BME280;26317;44.894;20.286;2023-10-31T02:27:01;100003.78;;;17.65;47.57
40612;BME280;26317;44.894;20.286;2023-10-31T02:29:39;100005.16;;;17.71;46.98
40612;BME280;26317;44.894;20.286;2023-10-31T02:32:19;99999.75;;;17.71;46.95
40612;BME280;26317;44.894;20.286;2023-10-31T02:34:59;99956.78;;;17.53;47.14
40612;BME280;26317;44.894;20.286;2023-10-31T02:37:33;99981.00;;;17.78;46.70
40612;BME280;26317;44.894;20.286;2023-10-31T02:40:20;99962.56;;;17.72;46.54
40612;BME280;26317;44.894;20.286;2023-10-31T02:43:07;99962.97;;;17.82;46.49
40612;BME280;26317;44.894;20.286;2023-10-31T02:45:54;99960.09;;;17.79;46.35
40612;BME280;26317;44.894;20.286;2023-10-31T02:48:37;99962.16;;;17.82;46.30
40612;BME280;26317;44.894;20.286;2023-10-31T02:51:14;99949.72;;;17.81;46.54
40612;BME280;26317;44.894;20.286;2023-10-31T02:53:51;99966.81;;;17.81;46.77
40612;BME280;26317;44.894;20.286;2023-10-31T02:56:37;99968.72;;;17.81;46.72
40612;BME280;26317;44.894;20.286;2023-10-31T02:59:12;99945.50;;;17.71;46.81
40612;BME280;26317;44.894;20.286;2023-10-31T03:01:56;99974.13;;;17.81;46.64
40612;BME280;26317;44.894;20.286;2023-10-31T03:04:35;99960.09;;;17.79;46.42
40612;BME280;26317;44.894;20.286;2023-10-31T03:07:32;99960.25;;;17.82;45.83
40612;BME280;26317;44.894;20.286;2023-10-31T03:10:11;99972.88;;;17.78;45.85
40612;BME280;26317;44.894;20.286;2023-10-31T03:12:52;99970.63;;;17.80;46.18
40612;BME280;26317;44.894;20.286;2023-10-31T03:15:33;99972.22;;;17.81;46.18
40612;BME280;26317;44.894;20.286;2023-10-31T03:18:10;99977.97;;;17.80;45.88
40612;BME280;26317;44.894;20.286;2023-10-31T03:20:49;99996.28;;;17.83;45.84
40612;BME280;26317;44.894;20.286;2023-10-31T03:23:29;99993.25;;;17.84;45.24
40612;BME280;26317;44.894;20.286;2023-10-31T03:26:09;99998.81;;;17.88;45.44
40612;BME280;26317;44.894;20.286;2023-10-31T03:28:56;99998.81;;;17.88;45.35
40612;BME280;26317;44.894;20.286;2023-10-31T03:31:37;99998.81;;;17.88;45.46
40612;BME280;26317;44.894;20.286;2023-10-31T03:34:17;99983.06;;;17.81;45.12
40612;BME280;26317;44.894;20.286;2023-10-31T03:36:57;100000.84;;;17.91;45.06
40612;BME280;26317;44.894;20.286;2023-10-31T03:39:41;99981.22;;;17.73;44.92
40612;BME280;26317;44.894;20.286;2023-10-31T03:42:21;100011.50;;;17.96;44.85
40612;BME280;26317;44.894;20.286;2023-10-31T03:45:09;100002.63;;;17.87;45.32
40612;BME280;26317;44.894;20.286;2023-10-31T03:47:49;100009.59;;;17.97;45.10
40612;BME280;26317;44.894;20.286;2023-10-31T03:50:27;100002.00;;;17.90;45.39
40612;BME280;26317;44.894;20.286;2023-10-31T03:53:05;100015.09;;;17.88;45.39
40612;BME280;26317;44.894;20.286;2023-10-31T03:55:44;100020.25;;;18.02;45.43
40612;BME280;26317;44.894;20.286;2023-10-31T03:58:22;100009.53;;;18.05;45.25
40612;BME280;26317;44.894;20.286;2023-10-31T04:01:20;100018.78;;;18.04;45.19
40612;BME280;26317;44.894;20.286;2023-10-31T04:03:57;100029.75;;;18.08;44.85
40612;BME280;26317;44.894;20.286;2023-10-31T04:06:31;100019.06;;;18.11;44.87
40612;BME280;26317;44.894;20.286;2023-10-31T04:09:11;100023.34;;;18.12;45.52
40612;BME280;26317;44.894;20.286;2023-10-31T04:11:56;100021.09;;;18.14;45.45
40612;BME280;26317;44.894;20.286;2023-10-31T04:14:35;100018.72;;;18.13;45.40
40612;BME280;26317;44.894;20.286;2023-10-31T04:17:25;100024.69;;;18.06;46.07
40612;BME280;26317;44.894;20.286;2023-10-31T04:20:16;100042.22;;;18.09;45.45
40612;BME280;26317;44.894;20.286;2023-10-31T04:22:56;100048.91;;;18.11;44.96
40612;BME280;26317;44.894;20.286;2023-10-31T04:25:33;100040.09;;;18.14;44.98
40612;BME280;26317;44.894;20.286;2023-10-31T04:28:07;100028.56;;;18.17;45.22
40612;BME280;26317;44.894;20.286;2023-10-31T04:30:44;100021.28;;;18.09;46.35
40612;BME280;26317;44.894;20.286;2023-10-31T04:33:47;100037.06;;;18.16;47.30
40612;BME280;26317;44.894;20.286;2023-10-31T04:36:35;99993.50;;;17.91;48.48
40612;BME280;26317;44.894;20.286;2023-10-31T04:39:14;100021.53;;;18.16;53.61
40612;BME280;26317;44.894;20.286;2023-10-31T04:41:49;100025.41;;;18.15;57.48
40612;BME280;26317;44.894;20.286;2023-10-31T04:44:24;100013.47;;;18.08;59.84
40612;BME280;26317;44.894;20.286;2023-10-31T04:47:05;100012.44;;;18.00;60.06
40612;BME280;26317;44.894;20.286;2023-10-31T04:49:48;100018.28;;;17.90;60.65
40612;BME280;26317;44.894;20.286;2023-10-31T04:52:24;99995.91;;;17.72;61.32
40612;BME280;26317;44.894;20.286;2023-10-31T04:55:06;99987.97;;;17.67;61.50
40612;BME280;26317;44.894;20.286;2023-10-31T04:57:43;100009.34;;;17.69;60.67
40612;BME280;26317;44.894;20.286;2023-10-31T05:00:26;100028.41;;;17.60;60.35
40612;BME280;26317;44.894;20.286;2023-10-31T05:03:00;100023.44;;;17.54;60.35
40612;BME280;26317;44.894;20.286;2023-10-31T05:05:48;100018.38;;;17.52;60.85
40612;BME280;26317;44.894;20.286;2023-10-31T05:08:23;100015.97;;;17.51;60.80
40612;BME280;26317;44.894;20.286;2023-10-31T05:11:11;100000.38;;;17.47;61.31
40612;BME280;26317;44.894;20.286;2023-10-31T05:13:56;100007.38;;;17.48;61.61
40612;BME280;26317;44.894;20.286;2023-10-31T05:16:47;100006.47;;;17.44;60.93
40612;BME280;26317;44.894;20.286;2023-10-31T05:19:23;100020.47;;;17.46;58.56
40612;BME280;26317;44.894;20.286;2023-10-31T05:22:09;100016.16;;;17.45;58.54
40612;BME280;26317;44.894;20.286;2023-10-31T05:24:47;100010.75;;;17.45;56.28
40612;BME280;26317;44.894;20.286;2023-10-31T05:27:23;100015.84;;;17.47;54.74
40612;BME280;26317;44.894;20.286;2023-10-31T05:32:51;100013.75;;;17.53;54.24
40612;BME280;26317;44.894;20.286;2023-10-31T05:35:30;100009.31;;;17.48;54.27
40612;BME280;26317;44.894;20.286;2023-10-31T05:38:10;100029.34;;;17.56;53.83
40612;BME280;26317;44.894;20.286;2023-10-31T05:40:54;100034.63;;;17.52;53.25
40612;BME280;26317;44.894;20.286;2023-10-31T05:43:32;100029.34;;;17.56;53.98
40612;BME280;26317;44.894;20.286;2023-10-31T05:46:06;100005.41;;;17.58;53.44
40612;BME280;26317;44.894;20.286;2023-10-31T05:48:42;100018.66;;;17.59;52.69
40612;BME280;26317;44.894;20.286;2023-10-31T05:51:23;100038.44;;;17.60;53.66
40612;BME280;26317;44.894;20.286;2023-10-31T05:54:06;100064.44;;;17.61;53.59
40612;BME280;26317;44.894;20.286;2023-10-31T05:56:42;100070.28;;;17.71;54.13
40612;BME280;26317;44.894;20.286;2023-10-31T05:59:21;100068.84;;;17.74;54.81
40612;BME280;26317;44.894;20.286;2023-10-31T06:01:58;100069.28;;;17.76;56.07
40612;BME280;26317;44.894;20.286;2023-10-31T06:04:34;100049.78;;;17.82;56.50
40612;BME280;26317;44.894;20.286;2023-10-31T06:07:16;100042.56;;;17.86;58.38
40612;BME280;26317;44.894;20.286;2023-10-31T06:09:59;100041.78;;;17.86;58.58
40612;BME280;26317;44.894;20.286;2023-10-31T06:12:31;100037.59;;;17.88;58.85
40612;BME280;26317;44.894;20.286;2023-10-31T06:15:18;100031.72;;;17.86;58.29
40612;BME280;26317;44.894;20.286;2023-10-31T06:17:55;100027.53;;;17.89;59.16
40612;BME280;26317;44.894;20.286;2023-10-31T06:20:32;100005.84;;;17.89;60.05
40612;BME280;26317;44.894;20.286;2023-10-31T06:23:11;99977.38;;;17.74;59.10
40612;BME280;26317;44.894;20.286;2023-10-31T06:25:50;99984.13;;;17.89;60.25
40612;BME280;26317;44.894;20.286;2023-10-31T06:28:27;99976.44;;;17.91;60.65
40612;BME280;26317;44.894;20.286;2023-10-31T06:31:19;99968.63;;;17.89;61.20
40612;BME280;26317;44.894;20.286;2023-10-31T06:33:54;99992.00;;;17.82;61.71
40612;BME280;26317;44.894;20.286;2023-10-31T06:36:34;99996.28;;;17.83;61.49
40612;BME280;26317;44.894;20.286;2023-10-31T06:39:29;100011.13;;;17.85;61.15
40612;BME280;26317;44.894;20.286;2023-10-31T06:42:12;99998.81;;;17.88;61.00
40612;BME280;26317;44.894;20.286;2023-10-31T06:44:50;99989.44;;;17.85;61.14
40612;BME280;26317;44.894;20.286;2023-10-31T06:47:24;99990.09;;;17.82;60.31
40612;BME280;26317;44.894;20.286;2023-10-31T06:50:14;99989.56;;;17.89;60.80
40612;BME280;26317;44.894;20.286;2023-10-31T06:52:56;99970.75;;;17.84;59.44
40612;BME280;26317;44.894;20.286;2023-10-31T06:55:36;99973.81;;;17.82;58.66
40612;BME280;26317;44.894;20.286;2023-10-31T06:58:15;99969.59;;;17.73;59.16
40612;BME280;26317;44.894;20.286;2023-10-31T07:00:57;99975.00;;;17.73;59.31
40612;BME280;26317;44.894;20.286;2023-10-31T07:03:34;99981.81;;;17.79;58.89
40612;BME280;26317;44.894;20.286;2023-10-31T07:06:07;99968.91;;;17.76;57.53
40612;BME280;26317;44.894;20.286;2023-10-31T07:08:59;99945.41;;;17.80;55.76
40612;BME280;26317;44.894;20.286;2023-10-31T07:11:41;99917.06;;;17.77;55.01
40612;BME280;26317;44.894;20.286;2023-10-31T07:14:19;99898.31;;;17.84;54.83
40612;BME280;26317;44.894;20.286;2023-10-31T07:17:00;99888.69;;;17.87;54.09
40612;BME280;26317;44.894;20.286;2023-10-31T07:19:36;99884.19;;;17.91;52.85
40612;BME280;26317;44.894;20.286;2023-10-31T07:22:10;99886.25;;;17.94;52.50
40612;BME280;26317;44.894;20.286;2023-10-31T07:24:45;99890.31;;;18.00;52.21
40612;BME280;26317;44.894;20.286;2023-10-31T07:27:20;99877.41;;;17.97;51.10
40612;BME280;26317;44.894;20.286;2023-10-31T07:30:05;99875.19;;;18.11;49.30
40612;BME280;26317;44.894;20.286;2023-10-31T07:32:45;99882.22;;;18.24;49.27
40612;BME280;26317;44.894;20.286;2023-10-31T07:35:36;99865.91;;;18.24;48.88
40612;BME280;26317;44.894;20.286;2023-10-31T07:38:18;99852.13;;;18.29;47.82
40612;BME280;26317;44.894;20.286;2023-10-31T07:40:52;99864.69;;;18.46;47.63
40612;BME280;26317;44.894;20.286;2023-10-31T07:43:31;99888.25;;;18.54;47.50
40612;BME280;26317;44.894;20.286;2023-10-31T07:46:23;99885.91;;;18.53;47.31
40612;BME280;26317;44.894;20.286;2023-10-31T07:48:58;99889.41;;;18.65;46.25
40612;BME280;26317;44.894;20.286;2023-10-31T07:51:44;99885.00;;;18.73;46.72
40612;BME280;26317;44.894;20.286;2023-10-31T07:54:22;99891.09;;;18.82;45.95
40612;BME280;26317;44.894;20.286;2023-10-31T07:56:57;99891.91;;;18.82;45.01
40612;BME280;26317;44.894;20.286;2023-10-31T07:59:41;99897.19;;;18.91;45.07
40612;BME280;26317;44.894;20.286;2023-10-31T08:02:30;99904.00;;;18.97;45.04
40612;BME280;26317;44.894;20.286;2023-10-31T08:05:09;99918.94;;;19.03;45.09
40612;BME280;26317;44.894;20.286;2023-10-31T08:07:48;99908.28;;;19.10;45.83
40612;BME280;26317;44.894;20.286;2023-10-31T08:10:26;99920.84;;;19.15;45.94
40612;BME280;26317;44.894;20.286;2023-10-31T08:13:28;99911.88;;;19.26;45.92
40612;BME280;26317;44.894;20.286;2023-10-31T08:16:10;99926.34;;;19.30;45.93
40612;BME280;26317;44.894;20.286;2023-10-31T08:18:45;99913.31;;;19.36;47.05
40612;BME280;26317;44.894;20.286;2023-10-31T08:21:18;99909.00;;;19.35;47.56
40612;BME280;26317;44.894;20.286;2023-10-31T08:23:51;99908.56;;;19.45;48.10
40612;BME280;26317;44.894;20.286;2023-10-31T08:26:27;99914.91;;;19.49;47.43
40612;BME280;26317;44.894;20.286;2023-10-31T08:29:08;99928.25;;;19.54;46.24
40612;BME280;26317;44.894;20.286;2023-10-31T08:31:49;99930.63;;;19.56;46.74
40612;BME280;26317;44.894;20.286;2023-10-31T08:34:28;99925.75;;;19.61;45.82
40612;BME280;26317;44.894;20.286;2023-10-31T08:37:18;99927.28;;;19.74;46.20
40612;BME280;26317;44.894;20.286;2023-10-31T08:39:58;99924.66;;;19.78;45.78
40612;BME280;26317;44.894;20.286;2023-10-31T08:42:45;99898.75;;;19.84;46.21
40612;BME280;26317;44.894;20.286;2023-10-31T08:48:10;99899.16;;;19.98;44.92
40612;BME280;26317;44.894;20.286;2023-10-31T08:50:49;99902.75;;;20.02;44.96
40612;BME280;26317;44.894;20.286;2023-10-31T08:53:26;99882.44;;;20.00;45.69
40612;BME280;26317;44.894;20.286;2023-10-31T08:56:00;99903.66;;;20.22;44.06
40612;BME280;26317;44.894;20.286;2023-10-31T08:58:41;99902.38;;;20.32;43.97
40612;BME280;26317;44.894;20.286;2023-10-31T09:01:16;99891.66;;;20.39;44.71
40612;BME280;26317;44.894;20.286;2023-10-31T09:03:54;99898.94;;;20.66;43.25
40612;BME280;26317;44.894;20.286;2023-10-31T09:06:37;99887.88;;;20.75;43.11
40612;BME280;26317;44.894;20.286;2023-10-31T09:09:13;99880.25;;;20.84;43.47
40612;BME280;26317;44.894;20.286;2023-10-31T09:11:47;99895.28;;;20.93;42.83
40612;BME280;26317;44.894;20.286;2023-10-31T09:14:27;99899.75;;;21.01;42.02
40612;BME280;26317;44.894;20.286;2023-10-31T09:17:04;99890.84;;;21.04;41.13
40612;BME280;26317;44.894;20.286;2023-10-31T09:19:38;99884.00;;;21.10;41.11
40612;BME280;26317;44.894;20.286;2023-10-31T09:22:22;99872.63;;;21.08;40.96
40612;BME280;26317;44.894;20.286;2023-10-31T09:24:56;99866.03;;;21.09;41.58
40612;BME280;26317;44.894;20.286;2023-10-31T09:27:37;99869.84;;;21.05;41.55
40612;BME280;26317;44.894;20.286;2023-10-31T09:30:23;99849.25;;;21.07;41.26
40612;BME280;26317;44.894;20.286;2023-10-31T09:33:10;99859.19;;;21.16;41.53
40612;BME280;26317;44.894;20.286;2023-10-31T09:35:47;99858.03;;;21.17;41.78
40612;BME280;26317;44.894;20.286;2023-10-31T09:38:43;99856.19;;;21.21;41.13
40612;BME280;26317;44.894;20.286;2023-10-31T09:41:26;99872.56;;;21.21;41.55
40612;BME280;26317;44.894;20.286;2023-10-31T09:44:09;99867.78;;;21.18;41.33
40612;BME280;26317;44.894;20.286;2023-10-31T09:46:54;99835.34;;;21.13;41.76
40612;BME280;26317;44.894;20.286;2023-10-31T09:49:34;99817.41;;;21.11;41.90
40612;BME280;26317;44.894;20.286;2023-10-31T09:52:21;99823.47;;;21.21;42.23
40612;BME280;26317;44.894;20.286;2023-10-31T09:55:14;99822.28;;;21.22;41.71
40612;BME280;26317;44.894;20.286;2023-10-31T09:57:54;99830.06;;;21.20;41.26
40612;BME280;26317;44.894;20.286;2023-10-31T10:00:31;99812.09;;;21.19;41.37
40612;BME280;26317;44.894;20.286;2023-10-31T10:03:07;99812.97;;;21.23;42.03
40612;BME280;26317;44.894;20.286;2023-10-31T10:05:59;99797.41;;;21.23;42.21
40612;BME280;26317;44.894;20.286;2023-10-31T10:08:41;99792.72;;;21.24;41.06
40612;BME280;26317;44.894;20.286;2023-10-31T10:11:24;99784.84;;;21.19;42.03
40612;BME280;26317;44.894;20.286;2023-10-31T10:14:07;99787.13;;;21.17;41.62
40612;BME280;26317;44.894;20.286;2023-10-31T10:16:46;99777.00;;;21.17;41.64
40612;BME280;26317;44.894;20.286;2023-10-31T10:19:23;99770.75;;;21.17;41.67
40612;BME280;26317;44.894;20.286;2023-10-31T10:21:59;99763.28;;;21.14;42.00
40612;BME280;26317;44.894;20.286;2023-10-31T10:24:47;99760.94;;;21.12;42.88
40612;BME280;26317;44.894;20.286;2023-10-31T10:27:24;99759.44;;;21.15;42.34
40612;BME280;26317;44.894;20.286;2023-10-31T10:30:07;99740.00;;;21.16;41.77
40612;BME280;26317;44.894;20.286;2023-10-31T10:32:42;99743.75;;;21.11;41.84
40612;BME280;26317;44.894;20.286;2023-10-31T10:35:24;99747.72;;;21.14;41.83
40612;BME280;26317;44.894;20.286;2023-10-31T10:38:05;99725.13;;;21.14;41.71
40612;BME280;26317;44.894;20.286;2023-10-31T10:41:05;99705.34;;;21.01;41.75
40612;BME280;26317;44.894;20.286;2023-10-31T10:43:46;99717.38;;;21.16;41.76
40612;BME280;26317;44.894;20.286;2023-10-31T10:46:44;99711.19;;;21.19;41.82
40612;BME280;26317;44.894;20.286;2023-10-31T10:49:31;99693.09;;;21.10;41.99
40612;BME280;26317;44.894;20.286;2023-10-31T10:52:34;99699.50;;;21.18;42.03
40612;BME280;26317;44.894;20.286;2023-10-31T10:55:18;99699.94;;;21.20;41.66
40612;BME280;26317;44.894;20.286;2023-10-31T10:58:08;99697.56;;;21.19;41.44
40612;BME280;26317;44.894;20.286;2023-10-31T11:01:03;99662.53;;;21.01;41.35
40612;BME280;26317;44.894;20.286;2023-10-31T11:03:46;99692.22;;;21.26;41.79
40612;BME280;26317;44.894;20.286;2023-10-31T11:06:40;99677.03;;;21.25;40.88
40612;BME280;26317;44.894;20.286;2023-10-31T11:09:15;99679.88;;;21.32;41.17
40612;BME280;26317;44.894;20.286;2023-10-31T11:11:55;99685.88;;;21.41;41.11
40612;BME280;26317;44.894;20.286;2023-10-31T11:14:47;99681.69;;;21.47;41.29
40612;BME280;26317;44.894;20.286;2023-10-31T11:17:39;99675.50;;;21.50;40.61
40612;BME280;26317;44.894;20.286;2023-10-31T11:20:16;99683.50;;;21.62;40.79
40612;BME280;26317;44.894;20.286;2023-10-31T11:22:57;99684.03;;;21.71;41.06
40612;BME280;26317;44.894;20.286;2023-10-31T11:25:42;99680.25;;;21.79;40.98
40612;BME280;26317;44.894;20.286;2023-10-31T11:28:14;99675.75;;;21.90;40.07
40612;BME280;26317;44.894;20.286;2023-10-31T11:30:53;99664.19;;;21.97;40.42
40612;BME280;26317;44.894;20.286;2023-10-31T11:34:03;99665.84;;;22.05;39.94
40612;BME280;26317;44.894;20.286;2023-10-31T11:36:44;99661.28;;;22.13;40.48
40612;BME280;26317;44.894;20.286;2023-10-31T11:39:21;99659.06;;;22.22;39.95
40612;BME280;26317;44.894;20.286;2023-10-31T11:42:22;99655.63;;;22.25;39.92
40612;BME280;26317;44.894;20.286;2023-10-31T11:45:01;99661.63;;;22.37;39.92
40612;BME280;26317;44.894;20.286;2023-10-31T11:47:46;99640.97;;;22.40;39.97
40612;BME280;26317;44.894;20.286;2023-10-31T11:50:42;99627.53;;;22.58;40.07
40612;BME280;26317;44.894;20.286;2023-10-31T11:53:26;99608.50;;;22.68;38.95
40612;BME280;26317;44.894;20.286;2023-10-31T11:56:04;99600.03;;;22.77;39.01
40612;BME280;26317;44.894;20.286;2023-10-31T11:58:45;99598.09;;;22.77;38.68
40612;BME280;26317;44.894;20.286;2023-10-31T12:01:34;99566.75;;;22.71;39.19
40612;BME280;26317;44.894;20.286;2023-10-31T12:04:27;99576.94;;;22.71;39.93
40612;BME280;26317;44.894;20.286;2023-10-31T12:07:27;99590.22;;;22.72;39.53
40612;BME280;26317;44.894;20.286;2023-10-31T12:10:16;99579.19;;;22.65;40.36
40612;BME280;26317;44.894;20.286;2023-10-31T12:13:19;99591.78;;;22.73;40.59
40612;BME280;26317;44.894;20.286;2023-10-31T12:16:04;99580.03;;;22.69;39.89
40612;BME280;26317;44.894;20.286;2023-10-31T12:18:44;99586.78;;;22.79;39.92
40612;BME280;26317;44.894;20.286;2023-10-31T12:21:21;99589.13;;;22.80;40.00
40612;BME280;26317;44.894;20.286;2023-10-31T12:24:26;99580.13;;;22.80;40.38
40612;BME280;26317;44.894;20.286;2023-10-31T12:27:01;99584.13;;;22.89;39.32
40612;BME280;26317;44.894;20.286;2023-10-31T12:29:42;99577.91;;;22.92;39.81
40612;BME280;26317;44.894;20.286;2023-10-31T12:32:33;99552.56;;;22.96;39.75
40612;BME280;26317;44.894;20.286;2023-10-31T12:35:11;99554.19;;;23.04;39.07
40612;BME280;26317;44.894;20.286;2023-10-31T12:37:47;99548.75;;;23.07;39.60
40612;BME280;26317;44.894;20.286;2023-10-31T12:40:30;99524.09;;;23.00;39.41
40612;BME280;26317;44.894;20.286;2023-10-31T12:43:06;99555.84;;;23.15;39.32
40612;BME280;26317;44.894;20.286;2023-10-31T12:45:53;99539.88;;;23.21;39.33
40612;BME280;26317;44.894;20.286;2023-10-31T12:48:40;99539.13;;;23.24;40.13
40612;BME280;26317;44.894;20.286;2023-10-31T12:51:33;99540.69;;;23.25;39.25
40612;BME280;26317;44.894;20.286;2023-10-31T12:54:29;99536.41;;;23.27;38.29
40612;BME280;26317;44.894;20.286;2023-10-31T12:57:36;99521.47;;;23.18;37.30
40612;BME280;26317;44.894;20.286;2023-10-31T13:00:18;99535.59;;;23.27;37.26
40612;BME280;26317;44.894;20.286;2023-10-31T13:03:15;99516.41;;;23.20;36.96
40612;BME280;26317;44.894;20.286;2023-10-31T13:05:56;99517.19;;;23.20;37.08
40612;BME280;26317;44.894;20.286;2023-10-31T13:08:34;99522.69;;;23.20;37.19
40612;BME280;26317;44.894;20.286;2023-10-31T13:11:21;99534.78;;;23.23;36.71
40612;BME280;26317;44.894;20.286;2023-10-31T13:13:59;99537.50;;;23.16;37.33
40612;BME280;26317;44.894;20.286;2023-10-31T13:16:42;99534.00;;;23.19;37.43
40612;BME280;26317;44.894;20.286;2023-10-31T13:19:20;99526.94;;;23.18;37.50
40612;BME280;26317;44.894;20.286;2023-10-31T13:21:57;99508.09;;;23.06;38.01
40612;BME280;26317;44.894;20.286;2023-10-31T13:24:37;99531.22;;;23.12;38.16
40612;BME280;26317;44.894;20.286;2023-10-31T13:27:12;99525.72;;;23.12;38.15
40612;BME280;26317;44.894;20.286;2023-10-31T13:30:05;99517.88;;;23.07;38.90
40612;BME280;26317;44.894;20.286;2023-10-31T13:32:44;99525.66;;;23.05;38.90
40612;BME280;26317;44.894;20.286;2023-10-31T13:35:25;99517.41;;;22.98;39.40
40612;BME280;26317;44.894;20.286;2023-10-31T13:38:06;99535.84;;;23.04;38.42
40612;BME280;26317;44.894;20.286;2023-10-31T13:40:42;99535.78;;;23.01;38.73
40612;BME280;26317;44.894;20.286;2023-10-31T13:43:28;99537.31;;;22.95;38.91
40612;BME280;26317;44.894;20.286;2023-10-31T13:46:13;99548.59;;;22.89;39.11
40612;BME280;26317;44.894;20.286;2023-10-31T13:49:03;99526.22;;;22.80;39.15
40612;BME280;26317;44.894;20.286;2023-10-31T13:51:39;99526.22;;;22.80;39.38
40612;BME280;26317;44.894;20.286;2023-10-31T13:54:19;99526.63;;;22.79;39.19
40612;BME280;26317;44.894;20.286;2023-10-31T13:57:05;99531.34;;;22.82;39.33
40612;BME280;26317;44.894;20.286;2023-10-31T13:59:52;99504.59;;;22.65;39.33
40612;BME280;26317;44.894;20.286;2023-10-31T14:02:55;99522.63;;;22.69;39.29
40612;BME280;26317;44.894;20.286;2023-10-31T14:05:43;99529.22;;;22.68;40.04
40612;BME280;26317;44.894;20.286;2023-10-31T14:08:36;99525.25;;;22.62;40.10